createdAt,value
2018-05-31T00:01:32.213Z,22.14
2018-05-31T00:03:59.809Z,22.19
2018-05-31T00:06:27.461Z,22.19
2018-05-31T00:08:55.070Z,22.05
2018-05-31T00:11:22.709Z,21.89
2018-05-31T00:13:50.321Z,21.78
2018-05-31T00:16:18.169Z,21.72
2018-05-31T00:18:45.790Z,21.82
2018-05-31T00:21:13.433Z,21.91
2018-05-31T00:23:41.036Z,21.99
2018-05-31T00:26:08.681Z,22.03
2018-05-31T00:28:36.296Z,22.00
2018-05-31T00:31:03.963Z,22.03
2018-05-31T00:33:31.552Z,22.01
2018-05-31T00:35:59.213Z,22.01
2018-05-31T00:38:26.844Z,22.09
2018-05-31T00:40:54.544Z,22.12
2018-05-31T00:43:22.160Z,22.02
2018-05-31T00:45:49.897Z,21.76
2018-05-31T00:48:17.540Z,21.36
2018-05-31T00:50:45.139Z,21.13
2018-05-31T00:53:12.977Z,21.08
2018-05-31T00:55:52.452Z,21.01
2018-05-31T00:58:20.082Z,21.19
2018-05-31T01:00:47.689Z,21.27
2018-05-31T01:03:15.320Z,21.38
2018-05-31T01:05:42.936Z,21.48
2018-05-31T01:08:10.649Z,21.47
2018-05-31T01:10:38.355Z,21.52
2018-05-31T01:13:06.004Z,21.58
2018-05-31T01:15:33.608Z,21.57
2018-05-31T01:18:01.268Z,21.58
2018-05-31T01:20:29.101Z,21.52
2018-05-31T01:22:56.732Z,21.56
2018-05-31T01:25:24.363Z,21.56
2018-05-31T01:27:52.161Z,21.72
2018-05-31T01:30:19.769Z,21.80
2018-05-31T01:32:47.372Z,21.67
2018-05-31T01:35:15.165Z,21.58
2018-05-31T01:37:42.787Z,21.39
2018-05-31T01:40:10.518Z,21.43
2018-05-31T01:42:38.113Z,21.49
2018-05-31T01:45:05.894Z,21.47
2018-05-31T01:47:33.551Z,21.54
2018-05-31T01:50:01.341Z,21.45
2018-05-31T01:52:28.947Z,21.49
2018-05-31T01:54:56.582Z,21.59
2018-05-31T01:57:24.201Z,21.67
2018-05-31T01:59:52.089Z,21.67
2018-05-31T02:02:19.760Z,21.58
2018-05-31T02:04:47.433Z,21.23
2018-05-31T02:07:15.055Z,20.88
2018-05-31T02:09:42.680Z,20.89
2018-05-31T02:12:10.429Z,20.67
2018-05-31T02:14:38.053Z,20.81
2018-05-31T02:17:05.693Z,20.76
2018-05-31T02:19:33.727Z,20.72
2018-05-31T02:22:01.403Z,20.71
2018-05-31T02:24:29.001Z,20.76
2018-05-31T02:26:56.640Z,20.90
2018-05-31T02:29:24.249Z,21.01
2018-05-31T02:31:51.900Z,21.14
2018-05-31T02:34:19.536Z,21.18
2018-05-31T02:36:47.181Z,21.17
2018-05-31T02:39:14.805Z,21.18
2018-05-31T02:41:42.457Z,21.06
2018-05-31T02:44:10.141Z,20.96
2018-05-31T02:46:37.778Z,20.77
2018-05-31T02:49:05.428Z,20.65
2018-05-31T02:51:33.134Z,20.78
2018-05-31T02:54:00.800Z,20.71
2018-05-31T02:56:28.409Z,20.73
2018-05-31T02:58:56.058Z,20.76
2018-05-31T03:01:23.669Z,20.69
2018-05-31T03:03:51.308Z,20.75
2018-05-31T03:06:18.913Z,20.85
2018-05-31T03:08:46.559Z,20.98
2018-05-31T03:11:14.173Z,21.05
2018-05-31T03:13:41.809Z,21.01
2018-05-31T03:16:09.408Z,20.88
2018-05-31T03:18:37.049Z,20.69
2018-05-31T03:21:04.693Z,20.64
2018-05-31T03:23:32.389Z,20.70
2018-05-31T03:25:59.997Z,20.76
2018-05-31T03:28:27.600Z,20.85
2018-05-31T03:30:55.290Z,20.85
2018-05-31T03:33:22.945Z,20.88
2018-05-31T03:35:50.621Z,20.91
2018-05-31T03:38:18.231Z,20.87
2018-05-31T03:40:45.873Z,20.93
2018-05-31T03:43:13.546Z,20.76
2018-05-31T03:45:41.189Z,20.77
2018-05-31T03:48:08.781Z,20.36
2018-05-31T03:50:36.439Z,20.19
2018-05-31T03:53:04.092Z,20.25
2018-05-31T03:55:31.740Z,20.39
2018-05-31T03:57:59.365Z,20.35
2018-05-31T04:00:27.021Z,20.56
2018-05-31T04:02:54.620Z,20.71
2018-05-31T04:05:22.208Z,20.71
2018-05-31T04:07:49.968Z,20.79
2018-05-31T04:10:17.572Z,20.84
2018-05-31T04:12:45.200Z,20.89
2018-05-31T04:15:12.801Z,20.89
2018-05-31T04:17:40.441Z,20.87
2018-05-31T04:20:08.049Z,20.77
2018-05-31T04:22:35.677Z,20.79
2018-05-31T04:25:03.289Z,20.82
2018-05-31T04:27:30.932Z,20.84
2018-05-31T04:29:58.542Z,20.85
2018-05-31T04:32:26.202Z,20.99
2018-05-31T04:34:53.796Z,21.08
2018-05-31T04:37:21.436Z,21.19
2018-05-31T04:39:49.044Z,21.01
2018-05-31T04:42:16.725Z,20.82
2018-05-31T04:44:44.316Z,20.69
2018-05-31T04:47:11.977Z,20.77
2018-05-31T04:49:39.597Z,20.82
2018-05-31T04:52:07.203Z,20.79
2018-05-31T04:54:34.837Z,20.87
2018-05-31T04:57:02.458Z,20.91
2018-05-31T04:59:30.112Z,20.85
2018-05-31T05:01:57.721Z,20.97
2018-05-31T05:04:25.384Z,21.04
2018-05-31T05:06:53.053Z,21.13
2018-05-31T05:09:20.704Z,21.14
2018-05-31T05:11:48.344Z,21.34
2018-05-31T05:14:16.130Z,21.39
2018-05-31T05:16:43.744Z,21.60
2018-05-31T05:19:11.385Z,21.71
2018-05-31T05:21:38.979Z,21.82
2018-05-31T05:24:06.605Z,21.92
2018-05-31T05:26:34.239Z,21.92
2018-05-31T05:29:01.865Z,22.03
2018-05-31T05:31:29.472Z,21.93
2018-05-31T05:33:57.283Z,21.93
2018-05-31T05:36:24.892Z,22.03
2018-05-31T05:38:52.519Z,22.09
2018-05-31T05:41:20.184Z,22.16
2018-05-31T05:43:47.788Z,21.97
2018-05-31T05:46:15.441Z,22.15
2018-05-31T05:48:43.117Z,22.28
2018-05-31T05:51:10.827Z,22.39
2018-05-31T05:53:38.442Z,22.32
2018-05-31T05:56:06.059Z,22.13
2018-05-31T05:58:33.689Z,22.14
2018-05-31T06:01:01.322Z,22.27
2018-05-31T06:03:28.900Z,22.26
2018-05-31T06:05:56.606Z,22.28
2018-05-31T06:08:24.178Z,22.35
2018-05-31T06:10:51.832Z,22.34
2018-05-31T06:13:19.445Z,22.41
2018-05-31T06:15:47.056Z,22.55
2018-05-31T06:18:14.717Z,22.58
2018-05-31T06:20:42.324Z,22.52
2018-05-31T06:23:09.964Z,22.59
2018-05-31T06:25:37.576Z,22.55
2018-05-31T06:28:05.213Z,22.66
2018-05-31T06:30:32.810Z,22.73
2018-05-31T06:33:00.497Z,22.76
2018-05-31T06:35:28.104Z,22.74
2018-05-31T06:37:55.767Z,22.93
2018-05-31T06:40:23.377Z,23.00
2018-05-31T06:42:51.060Z,23.01
2018-05-31T06:45:18.705Z,23.05
2018-05-31T06:47:46.350Z,23.17
2018-05-31T06:50:13.969Z,23.33
2018-05-31T06:52:43.386Z,23.44
2018-05-31T06:55:11.022Z,23.53
2018-05-31T06:57:38.625Z,23.45
2018-05-31T07:00:06.329Z,23.41
2018-05-31T07:02:33.941Z,23.47
2018-05-31T07:05:01.581Z,23.37
2018-05-31T07:07:29.216Z,23.55
2018-05-31T07:09:56.841Z,23.48
2018-05-31T07:12:24.561Z,23.47
2018-05-31T07:14:52.189Z,23.47
2018-05-31T07:17:19.794Z,23.50
2018-05-31T07:19:47.433Z,23.28
2018-05-31T07:22:15.030Z,23.43
2018-05-31T07:24:42.691Z,23.63
2018-05-31T07:27:10.334Z,23.81
2018-05-31T07:29:37.917Z,23.87
2018-05-31T07:32:05.549Z,23.79
2018-05-31T07:34:33.160Z,23.86
2018-05-31T07:37:00.805Z,23.89
2018-05-31T07:39:28.460Z,23.94
2018-05-31T07:41:56.137Z,24.00
2018-05-31T07:44:23.802Z,24.00
2018-05-31T07:46:51.388Z,24.11
2018-05-31T07:49:18.988Z,24.15
2018-05-31T07:51:46.683Z,24.17
2018-05-31T07:54:14.306Z,23.93
2018-05-31T07:56:41.937Z,23.80
2018-05-31T07:59:09.518Z,23.69
2018-05-31T08:01:37.260Z,23.75
2018-05-31T08:04:04.889Z,23.73
2018-05-31T08:06:32.536Z,23.97
2018-05-31T08:09:00.216Z,24.02
2018-05-31T08:11:27.911Z,24.11
2018-05-31T08:13:55.548Z,24.16
2018-05-31T08:16:23.193Z,24.00
2018-05-31T08:18:50.829Z,24.11
2018-05-31T08:21:18.443Z,24.03
2018-05-31T08:23:46.248Z,24.09
2018-05-31T08:26:13.857Z,24.17
2018-05-31T08:28:41.656Z,24.17
2018-05-31T08:31:09.301Z,24.27
2018-05-31T08:33:36.941Z,24.29
2018-05-31T08:36:04.540Z,24.26
2018-05-31T08:38:32.181Z,24.38
2018-05-31T08:40:59.792Z,24.46
2018-05-31T08:43:27.513Z,24.27
2018-05-31T08:45:55.137Z,24.13
2018-05-31T08:48:22.841Z,24.23
2018-05-31T08:50:50.456Z,24.19
2018-05-31T08:53:18.050Z,24.25
2018-05-31T08:55:45.779Z,24.34
2018-05-31T08:58:13.412Z,24.28
2018-05-31T09:00:41.039Z,24.35
2018-05-31T09:03:08.744Z,24.36
2018-05-31T09:05:36.374Z,24.11
2018-05-31T09:08:04.048Z,24.17
2018-05-31T09:10:31.709Z,24.24
2018-05-31T09:12:59.294Z,24.30
2018-05-31T09:15:26.941Z,24.36
2018-05-31T09:17:54.545Z,24.32
2018-05-31T09:20:22.252Z,24.34
2018-05-31T09:22:50.041Z,24.36
2018-05-31T09:25:17.641Z,24.19
2018-05-31T09:27:45.281Z,24.24
2018-05-31T09:30:12.918Z,24.37
2018-05-31T09:32:40.553Z,24.43
2018-05-31T09:35:08.203Z,24.23
2018-05-31T09:37:35.803Z,24.21
2018-05-31T09:40:03.400Z,24.23
2018-05-31T09:42:31.040Z,24.19
2018-05-31T09:44:58.713Z,24.11
2018-05-31T09:47:26.364Z,24.32
2018-05-31T09:49:53.963Z,24.19
2018-05-31T09:52:21.614Z,24.08
2018-05-31T09:54:49.229Z,24.12
2018-05-31T09:57:16.926Z,24.20
2018-05-31T09:59:44.522Z,24.20
2018-05-31T10:02:12.165Z,24.34
2018-05-31T10:04:39.794Z,24.34
2018-05-31T10:07:07.445Z,24.17
2018-05-31T10:09:35.166Z,24.07
2018-05-31T10:12:02.785Z,24.26
2018-05-31T10:14:30.412Z,24.28
2018-05-31T10:16:58.023Z,23.87
2018-05-31T10:19:25.667Z,24.10
2018-05-31T10:21:53.268Z,24.23
2018-05-31T10:24:20.928Z,24.50
2018-05-31T10:26:48.556Z,24.78
2018-05-31T10:29:16.201Z,25.05
2018-05-31T10:31:43.835Z,25.52
2018-05-31T10:34:11.477Z,25.36
2018-05-31T10:36:39.081Z,25.21
2018-05-31T10:39:06.756Z,25.21
2018-05-31T10:41:34.375Z,25.30
2018-05-31T10:44:02.029Z,25.44
2018-05-31T10:46:29.679Z,25.77
2018-05-31T10:48:57.204Z,25.78
2018-05-31T10:51:24.886Z,25.75
2018-05-31T10:53:52.519Z,26.01
2018-05-31T10:56:20.145Z,25.81
2018-05-31T10:58:47.737Z,26.09
2018-05-31T11:01:15.389Z,26.16
2018-05-31T11:03:42.981Z,26.33
2018-05-31T11:06:10.616Z,26.48
2018-05-31T11:08:38.210Z,26.75
2018-05-31T11:11:06.518Z,26.47
2018-05-31T11:13:34.156Z,26.77
2018-05-31T11:16:01.817Z,26.18
2018-05-31T11:18:29.424Z,26.58
2018-05-31T11:20:57.111Z,26.59
2018-05-31T11:23:24.736Z,26.76
2018-05-31T11:25:52.458Z,27.13
2018-05-31T11:28:20.049Z,27.34
2018-05-31T11:30:47.707Z,27.01
2018-05-31T11:33:15.309Z,27.38
2018-05-31T11:35:42.908Z,27.56
2018-05-31T11:38:10.556Z,27.35
2018-05-31T11:40:38.172Z,27.35
2018-05-31T11:43:05.825Z,27.65
2018-05-31T11:45:33.417Z,27.51
2018-05-31T11:48:01.055Z,27.50
2018-05-31T11:50:28.662Z,27.52
2018-05-31T11:52:56.335Z,27.87
2018-05-31T11:55:23.959Z,27.73
2018-05-31T11:57:51.640Z,27.84
2018-05-31T12:00:19.251Z,28.10
2018-05-31T12:02:46.913Z,28.36
2018-05-31T12:05:14.554Z,28.50
2018-05-31T12:07:42.248Z,28.68
2018-05-31T12:10:09.914Z,28.55
2018-05-31T12:12:37.521Z,28.42
2018-05-31T12:15:05.180Z,27.81
2018-05-31T12:17:32.804Z,27.70
2018-05-31T12:20:00.417Z,27.68
2018-05-31T12:22:28.061Z,27.65
2018-05-31T12:24:55.758Z,27.62
2018-05-31T12:27:23.362Z,27.61
2018-05-31T12:29:51.065Z,27.67
2018-05-31T12:32:18.679Z,28.05
2018-05-31T12:34:46.304Z,28.09
2018-05-31T12:37:13.927Z,28.74
2018-05-31T12:39:41.573Z,29.17
2018-05-31T12:42:09.181Z,29.27
2018-05-31T12:44:36.898Z,28.97
2018-05-31T12:47:04.510Z,28.93
2018-05-31T12:49:32.169Z,29.14
2018-05-31T12:51:59.885Z,29.28
2018-05-31T12:54:27.504Z,29.46
2018-05-31T12:56:55.143Z,29.38
2018-05-31T12:59:22.756Z,29.81
2018-05-31T13:01:50.439Z,29.84
2018-05-31T13:04:18.020Z,29.66
2018-05-31T13:06:45.719Z,29.45
2018-05-31T13:09:13.358Z,29.21
2018-05-31T13:11:40.979Z,29.80
2018-05-31T13:14:08.597Z,29.85
2018-05-31T13:16:36.277Z,29.64
2018-05-31T13:19:03.884Z,29.86
2018-05-31T13:21:31.583Z,29.89
2018-05-31T13:23:59.215Z,29.59
2018-05-31T13:26:26.862Z,29.63
2018-05-31T13:28:54.545Z,29.76
2018-05-31T13:31:22.202Z,30.23
2018-05-31T13:33:49.997Z,30.36
2018-05-31T13:36:17.592Z,30.43
2018-05-31T13:38:45.238Z,29.99
2018-05-31T13:41:12.932Z,30.13
2018-05-31T13:43:40.588Z,30.09
2018-05-31T13:46:08.193Z,29.90
2018-05-31T13:48:35.871Z,30.06
2018-05-31T13:51:03.505Z,30.15
2018-05-31T13:53:31.138Z,30.08
2018-05-31T13:55:58.761Z,30.37
2018-05-31T13:58:26.381Z,30.49
2018-05-31T14:00:54.002Z,30.89
2018-05-31T14:03:21.646Z,30.90
2018-05-31T14:05:49.249Z,31.09
2018-05-31T14:08:16.928Z,30.68
2018-05-31T14:10:44.541Z,30.96
2018-05-31T14:13:12.243Z,31.55
2018-05-31T14:15:39.904Z,31.76
2018-05-31T14:18:07.601Z,31.63
2018-05-31T14:20:35.256Z,30.97
2018-05-31T14:23:02.870Z,30.91
2018-05-31T14:25:30.621Z,30.65
2018-05-31T14:27:58.224Z,31.19
2018-05-31T14:30:25.869Z,30.77
2018-05-31T14:32:53.561Z,31.40
2018-05-31T14:35:21.212Z,31.62
2018-05-31T14:37:48.869Z,31.44
2018-05-31T14:40:16.494Z,31.07
2018-05-31T14:42:44.109Z,30.28
2018-05-31T14:45:11.809Z,30.90
2018-05-31T14:47:39.420Z,31.58
2018-05-31T14:50:07.081Z,31.56
2018-05-31T14:52:34.687Z,31.39
2018-05-31T14:55:02.305Z,31.70
2018-05-31T14:57:29.960Z,31.80
2018-05-31T14:59:57.630Z,31.85
2018-05-31T15:02:25.265Z,31.26
2018-05-31T15:04:52.858Z,31.79
2018-05-31T15:07:20.482Z,32.17
2018-05-31T15:09:48.092Z,32.36
2018-05-31T15:12:15.712Z,32.25
2018-05-31T15:14:43.305Z,31.96
2018-05-31T15:17:11.078Z,32.02
2018-05-31T15:19:38.680Z,31.97
2018-05-31T15:22:06.355Z,32.39
2018-05-31T15:24:33.999Z,32.73
2018-05-31T15:27:01.643Z,32.74
2018-05-31T15:29:29.232Z,32.59
2018-05-31T15:31:57.114Z,32.38
2018-05-31T15:34:24.719Z,31.95
2018-05-31T15:36:52.328Z,32.13
2018-05-31T15:39:19.969Z,31.86
2018-05-31T15:41:47.572Z,32.43
2018-05-31T15:44:15.249Z,33.14
2018-05-31T15:46:42.883Z,32.65
2018-05-31T15:49:10.557Z,32.15
2018-05-31T15:51:38.169Z,32.50
2018-05-31T15:54:05.860Z,32.80
2018-05-31T15:56:33.473Z,32.66
2018-05-31T15:59:01.135Z,32.66
2018-05-31T16:01:28.777Z,32.60
2018-05-31T16:03:56.446Z,32.97
2018-05-31T16:06:24.047Z,32.96
2018-05-31T16:08:51.697Z,32.65
2018-05-31T16:11:19.300Z,32.63
2018-05-31T16:13:46.996Z,32.76
2018-05-31T16:16:14.608Z,32.62
2018-05-31T16:18:42.197Z,32.82
2018-05-31T16:21:09.834Z,32.33
2018-05-31T16:23:37.724Z,32.09
2018-05-31T16:26:05.360Z,31.87
2018-05-31T16:28:33.007Z,32.21
2018-05-31T16:31:00.640Z,32.25
2018-05-31T16:33:28.333Z,32.14
2018-05-31T16:35:56.028Z,32.57
2018-05-31T16:38:23.639Z,32.35
2018-05-31T16:40:51.337Z,32.21
2018-05-31T16:43:18.926Z,31.79
2018-05-31T16:45:46.594Z,31.97
2018-05-31T16:48:14.191Z,32.08
2018-05-31T16:50:41.856Z,31.79
2018-05-31T16:53:09.448Z,31.72
2018-05-31T16:55:37.116Z,31.65
2018-05-31T16:58:04.746Z,31.63
2018-05-31T17:00:32.351Z,31.28
2018-05-31T17:03:00.042Z,31.60
2018-05-31T17:05:27.695Z,31.59
2018-05-31T17:07:55.333Z,31.42
2018-05-31T17:10:23.061Z,31.63
2018-05-31T17:12:50.694Z,31.34
2018-05-31T17:15:18.297Z,30.82
2018-05-31T17:17:45.948Z,30.90
2018-05-31T17:20:13.569Z,30.69
2018-05-31T17:22:41.274Z,30.77
2018-05-31T17:25:08.908Z,30.90
2018-05-31T17:27:36.558Z,31.01
2018-05-31T17:30:04.153Z,31.25
2018-05-31T17:32:31.917Z,31.30
2018-05-31T17:34:59.531Z,31.13
2018-05-31T17:37:27.220Z,30.53
2018-05-31T17:39:54.849Z,30.49
2018-05-31T17:42:22.492Z,30.60
2018-05-31T17:44:50.119Z,30.43
2018-05-31T17:47:17.813Z,30.66
2018-05-31T17:49:45.449Z,31.02
2018-05-31T17:52:13.054Z,31.04
2018-05-31T17:54:40.769Z,30.96
2018-05-31T17:57:08.361Z,30.67
2018-05-31T17:59:36.024Z,30.53
2018-05-31T18:02:03.614Z,30.37
2018-05-31T18:04:31.310Z,29.95
2018-05-31T18:06:58.914Z,30.01
2018-05-31T18:09:26.589Z,30.09
2018-05-31T18:11:54.193Z,30.07
2018-05-31T18:14:21.885Z,29.72
2018-05-31T18:16:49.461Z,29.92
2018-05-31T18:19:17.113Z,29.80
2018-05-31T18:21:44.737Z,29.89
2018-05-31T18:24:12.517Z,29.72
2018-05-31T18:26:40.182Z,29.66
2018-05-31T18:29:07.833Z,29.50
2018-05-31T18:31:35.572Z,29.40
2018-05-31T18:34:03.177Z,29.23
2018-05-31T18:36:30.845Z,29.44
2018-05-31T18:38:58.521Z,29.38
2018-05-31T18:41:26.165Z,29.30
2018-05-31T18:43:53.760Z,29.21
2018-05-31T18:46:21.449Z,29.22
2018-05-31T18:48:49.107Z,28.99
2018-05-31T18:51:20.715Z,28.74
2018-05-31T18:53:48.372Z,28.54
2018-05-31T18:56:16.065Z,28.52
2018-05-31T18:58:43.708Z,28.32
2018-05-31T19:01:11.393Z,28.20
2018-05-31T19:03:39.021Z,28.15
2018-05-31T19:06:06.665Z,28.09
2018-05-31T19:08:34.298Z,27.94
2018-05-31T19:11:02.248Z,27.99
2018-05-31T19:13:35.429Z,28.00
2018-05-31T19:16:03.122Z,27.84
2018-05-31T19:18:36.329Z,27.77
2018-05-31T19:21:03.989Z,27.79
2018-05-31T19:23:31.641Z,27.71
2018-05-31T19:25:59.321Z,27.56
2018-05-31T19:28:26.970Z,27.53
2018-05-31T19:31:00.174Z,27.48
2018-05-31T19:33:27.845Z,27.39
2018-05-31T19:36:01.149Z,27.33
2018-05-31T19:38:28.765Z,27.26
2018-05-31T19:40:56.377Z,27.32
2018-05-31T19:43:29.510Z,27.30
2018-05-31T19:45:57.122Z,27.25
2018-05-31T19:48:24.752Z,27.31
2018-05-31T19:50:52.376Z,27.21
2018-05-31T19:53:25.504Z,27.18
2018-05-31T19:55:53.126Z,27.12
2018-05-31T19:58:28.036Z,27.08
2018-05-31T20:01:01.124Z,27.05
2018-05-31T20:03:37.038Z,27.02
2018-05-31T20:06:04.650Z,27.09
2018-05-31T20:08:32.331Z,27.19
2018-05-31T20:10:59.989Z,27.20
2018-05-31T20:13:27.677Z,27.14
2018-05-31T20:15:55.345Z,27.10
2018-05-31T20:18:23.001Z,27.15
2018-05-31T20:20:50.694Z,27.10
2018-05-31T20:23:18.325Z,27.06
2018-05-31T20:25:45.962Z,26.90
2018-05-31T20:28:13.683Z,26.65
2018-05-31T20:30:41.364Z,26.51
2018-05-31T20:33:09.045Z,26.33
2018-05-31T20:35:36.684Z,26.16
2018-05-31T20:38:04.313Z,26.06
2018-05-31T20:40:31.961Z,26.21
2018-05-31T20:42:59.588Z,26.28
2018-05-31T20:45:27.376Z,26.04
2018-05-31T20:47:55.034Z,25.92
2018-05-31T20:50:22.852Z,25.63
2018-05-31T20:52:50.477Z,25.59
2018-05-31T20:55:18.178Z,25.66
2018-05-31T20:57:45.804Z,25.73
2018-05-31T21:00:13.462Z,25.86
2018-05-31T21:02:41.149Z,25.98
2018-05-31T21:05:08.825Z,26.02
2018-05-31T21:07:36.441Z,25.99
2018-05-31T21:10:04.071Z,25.82
2018-05-31T21:12:31.704Z,25.79
2018-05-31T21:14:59.374Z,25.81
2018-05-31T21:17:26.980Z,25.88
2018-05-31T21:19:55.191Z,25.63
2018-05-31T21:22:22.813Z,25.67
2018-05-31T21:24:50.463Z,25.66
2018-05-31T21:27:18.139Z,25.72
2018-05-31T21:29:45.783Z,25.60
2018-05-31T21:32:13.426Z,25.19
2018-05-31T21:34:41.026Z,25.15
2018-05-31T21:37:08.807Z,25.15
2018-05-31T21:39:36.401Z,25.22
2018-05-31T21:42:04.084Z,25.37
2018-05-31T21:44:31.684Z,25.34
2018-05-31T21:46:59.312Z,25.41
2018-05-31T21:49:27.044Z,25.51
2018-05-31T21:51:54.993Z,25.35
2018-05-31T21:54:22.652Z,25.38
2018-05-31T21:56:50.345Z,25.43
2018-05-31T21:59:17.940Z,25.41
2018-05-31T22:01:45.608Z,25.40
2018-05-31T22:04:13.228Z,25.39
2018-05-31T22:06:40.949Z,25.35
2018-05-31T22:09:08.563Z,25.19
2018-05-31T22:11:36.245Z,25.11
2018-05-31T22:14:03.856Z,24.56
2018-05-31T22:16:31.484Z,24.34
2018-05-31T22:18:59.253Z,24.44
2018-05-31T22:21:26.863Z,24.58
2018-05-31T22:23:54.510Z,24.68
2018-05-31T22:26:22.129Z,24.70
2018-05-31T22:28:49.768Z,24.71
2018-05-31T22:31:17.377Z,24.74
2018-05-31T22:33:45.041Z,24.58
2018-05-31T22:36:12.657Z,24.53
2018-05-31T22:38:40.308Z,24.55
2018-05-31T22:41:07.913Z,24.66
2018-05-31T22:43:35.510Z,24.63
2018-05-31T22:46:03.203Z,24.32
2018-05-31T22:48:30.786Z,24.09
2018-05-31T22:50:58.436Z,23.93
2018-05-31T22:53:26.105Z,23.91
2018-05-31T22:55:53.837Z,23.53
2018-05-31T22:58:21.683Z,23.61
2018-05-31T23:00:49.355Z,23.79
2018-05-31T23:03:16.961Z,23.85
2018-05-31T23:05:44.596Z,23.86
2018-05-31T23:08:12.206Z,23.94
2018-05-31T23:10:39.899Z,23.93
2018-05-31T23:13:07.526Z,24.05
2018-05-31T23:15:35.485Z,24.06
2018-05-31T23:18:03.089Z,23.88
2018-05-31T23:20:30.784Z,23.77
2018-05-31T23:22:58.384Z,23.84
2018-05-31T23:25:26.026Z,23.89
2018-05-31T23:27:53.693Z,23.95
2018-05-31T23:30:21.301Z,23.93
2018-05-31T23:32:49.017Z,23.93
2018-05-31T23:35:16.636Z,23.85
2018-05-31T23:37:44.272Z,23.72
2018-05-31T23:40:12.700Z,23.47
2018-05-31T23:42:40.376Z,23.43
2018-05-31T23:45:07.990Z,23.52
2018-05-31T23:47:35.639Z,23.56
2018-05-31T23:50:03.238Z,23.53
2018-05-31T23:52:30.896Z,23.66
2018-05-31T23:54:58.590Z,23.67
2018-05-31T23:57:26.303Z,23.72
2018-05-31T23:59:53.921Z,23.64
